createdAt,value
2022-12-20T00:02:29.998Z,101097.41
2022-12-20T00:05:40.190Z,101089.88
2022-12-20T00:08:50.721Z,101089.03
2022-12-20T00:11:56.447Z,101087.34
2022-12-20T00:15:01.716Z,101087.38
2022-12-20T00:18:10.641Z,101076.44
2022-12-20T00:21:17.583Z,101069.72
2022-12-20T00:24:26.542Z,101079.78
2022-12-20T00:27:32.500Z,101067.16
2022-12-20T00:30:38.804Z,101070.53
2022-12-20T00:33:48.103Z,101066.28
2022-12-20T00:36:54.098Z,101062.09
2022-12-20T00:40:02.618Z,101057.06
2022-12-20T00:43:08.510Z,101049.44
2022-12-20T00:46:15.754Z,101047.72
2022-12-20T00:49:20.814Z,101046.88
2022-12-20T00:52:26.716Z,101041.84
2022-12-20T00:55:35.955Z,101041.72
2022-12-20T00:58:44.623Z,101046.84
2022-12-20T01:01:51.784Z,101038.34
2022-12-20T01:05:01.616Z,101046.81
2022-12-20T01:08:13.235Z,101043.44
2022-12-20T01:11:22.710Z,101036.72
2022-12-20T01:14:28.862Z,101038.47
2022-12-20T01:17:37.281Z,101032.47
2022-12-20T01:20:42.829Z,101032.50
2022-12-20T01:23:48.992Z,101022.41
2022-12-20T01:26:57.463Z,101018.16
2022-12-20T01:30:04.252Z,101025.75
2022-12-20T01:33:10.971Z,100999.69
2022-12-20T01:36:18.260Z,101003.00
2022-12-20T01:39:24.782Z,101006.38
2022-12-20T01:42:33.445Z,101003.88
2022-12-20T01:45:40.275Z,101002.19
2022-12-20T01:48:48.291Z,100992.09
2022-12-20T01:52:01.139Z,101011.41
2022-12-20T01:55:11.150Z,101000.44
2022-12-20T01:58:20.737Z,100986.16
2022-12-20T02:01:27.159Z,100983.59
2022-12-20T02:04:32.950Z,100970.16
2022-12-20T02:07:39.153Z,100973.50
2022-12-20T02:11:00.267Z,100976.84
2022-12-20T02:14:14.038Z,100972.63
2022-12-20T02:17:23.352Z,100970.13
2022-12-20T02:20:55.907Z,100969.28
2022-12-20T02:24:30.822Z,100964.25
2022-12-20T02:27:56.484Z,100952.47
2022-12-20T02:31:12.164Z,100947.38
2022-12-20T02:34:18.591Z,100950.69
2022-12-20T02:37:23.879Z,100939.81
2022-12-20T02:40:39.348Z,100940.63
2022-12-20T02:44:05.100Z,100946.50
2022-12-20T02:47:14.447Z,100940.63
2022-12-20T02:50:26.610Z,100941.47
2022-12-20T02:53:37.525Z,100932.22
2022-12-20T02:56:48.792Z,100925.50
2022-12-20T02:59:58.909Z,100921.28
2022-12-20T03:03:27.244Z,100922.13
2022-12-20T03:06:37.403Z,100915.41
2022-12-20T03:09:44.883Z,100912.06
2022-12-20T03:12:53.409Z,100906.22
2022-12-20T03:16:04.694Z,100896.09
2022-12-20T03:19:13.579Z,100899.47
2022-12-20T03:22:19.615Z,100896.06
2022-12-20T03:25:25.632Z,100896.91
2022-12-20T03:28:33.441Z,100892.72
2022-12-20T03:31:43.430Z,100895.22
2022-12-20T03:34:53.545Z,100893.50
2022-12-20T03:38:05.959Z,100900.22
2022-12-20T03:41:14.999Z,100892.66
2022-12-20T03:44:21.486Z,100883.44
2022-12-20T03:47:30.775Z,100884.25
2022-12-20T03:50:42.356Z,100883.41
2022-12-20T03:53:51.516Z,100879.22
2022-12-20T03:57:02.639Z,100876.69
2022-12-20T04:00:12.898Z,100867.47
2022-12-20T04:03:23.790Z,100874.16
2022-12-20T04:06:31.732Z,100873.31
2022-12-20T04:09:40.234Z,100865.75
2022-12-20T04:12:55.061Z,100868.28
2022-12-20T04:16:02.135Z,100861.56
2022-12-20T04:19:15.425Z,100859.03
2022-12-20T04:22:27.259Z,100856.50
2022-12-20T04:25:42.045Z,100841.38
2022-12-20T04:28:56.145Z,100842.22
2022-12-20T04:32:03.472Z,100841.41
2022-12-20T04:35:11.053Z,100837.19
2022-12-20T04:38:21.690Z,100837.19
2022-12-20T04:41:32.405Z,100833.00
2022-12-20T04:44:49.971Z,100822.88
2022-12-20T04:48:21.020Z,100826.25
2022-12-20T04:51:29.265Z,100817.88
2022-12-20T04:54:38.702Z,100815.31
2022-12-20T04:57:53.275Z,100812.78
2022-12-20T05:00:59.373Z,100812.84
2022-12-20T05:07:30.183Z,100799.41
2022-12-20T05:10:37.531Z,100806.97
2022-12-20T05:13:43.603Z,100814.53
2022-12-20T05:16:51.679Z,100801.09
2022-12-20T05:19:59.465Z,100810.31
2022-12-20T05:23:19.090Z,100812.84
2022-12-20T05:26:32.163Z,100816.19
2022-12-20T05:29:40.157Z,100806.97
2022-12-20T05:32:46.546Z,100805.31
2022-12-20T05:35:56.480Z,100808.63
2022-12-20T05:39:06.284Z,100815.31
2022-12-20T05:42:18.253Z,100819.56
2022-12-20T05:45:23.981Z,100822.09
2022-12-20T05:48:46.175Z,100812.00
2022-12-20T05:51:53.827Z,100827.97
2022-12-20T05:55:13.228Z,100816.19
2022-12-20T05:58:20.706Z,100813.69
2022-12-20T06:01:34.588Z,100807.78
2022-12-20T06:04:41.978Z,100812.00
2022-12-20T06:07:54.371Z,100811.16
2022-12-20T06:11:02.252Z,100818.75
2022-12-20T06:14:16.237Z,100809.50
2022-12-20T06:17:29.749Z,100811.16
2022-12-20T06:20:37.351Z,100802.78
2022-12-20T06:23:46.419Z,100797.75
2022-12-20T06:26:52.863Z,100796.91
2022-12-20T06:30:04.579Z,100805.34
2022-12-20T06:33:21.384Z,100800.28
2022-12-20T06:36:36.797Z,100795.25
2022-12-20T06:39:41.574Z,100793.56
2022-12-20T06:42:47.742Z,100790.22
2022-12-20T06:45:55.977Z,100783.47
2022-12-20T06:49:06.026Z,100780.97
2022-12-20T06:52:13.195Z,100775.94
2022-12-20T06:55:26.890Z,100775.09
2022-12-20T06:58:32.182Z,100779.28
2022-12-20T07:01:40.502Z,100781.84
2022-12-20T07:04:45.294Z,100779.31
2022-12-20T07:07:53.764Z,100772.56
2022-12-20T07:11:04.640Z,100770.91
2022-12-20T07:14:12.554Z,100769.22
2022-12-20T07:17:20.506Z,100774.28
2022-12-20T07:20:33.068Z,100770.06
2022-12-20T07:23:38.719Z,100770.91
2022-12-20T07:26:45.018Z,100776.78
2022-12-20T07:29:52.994Z,100771.75
2022-12-20T07:33:01.776Z,100763.34
2022-12-20T07:36:10.337Z,100768.41
2022-12-20T07:39:16.220Z,100777.66
2022-12-20T07:42:22.150Z,100776.81
2022-12-20T07:45:30.615Z,100760.00
2022-12-20T07:48:45.450Z,100758.34
2022-12-20T07:51:53.023Z,100766.72
2022-12-20T07:55:03.869Z,100757.47
2022-12-20T07:58:13.963Z,100749.09
2022-12-20T08:01:24.950Z,100742.38
2022-12-20T08:04:32.887Z,100755.81
2022-12-20T08:07:39.425Z,100755.81
2022-12-20T08:10:45.324Z,100745.75
2022-12-20T08:13:57.288Z,100740.69
2022-12-20T08:17:03.205Z,100732.28
2022-12-20T08:20:13.413Z,100732.28
2022-12-20T08:23:19.809Z,100730.59
2022-12-20T08:26:25.725Z,100733.13
2022-12-20T08:29:31.382Z,100739.84
2022-12-20T08:32:39.749Z,100739.84
2022-12-20T08:36:00.373Z,100743.22
2022-12-20T08:39:08.333Z,100735.66
2022-12-20T08:42:15.558Z,100737.34
2022-12-20T08:45:21.602Z,100737.34
2022-12-20T08:48:27.524Z,100740.69
2022-12-20T08:51:37.705Z,100739.00
2022-12-20T08:54:44.050Z,100739.88
2022-12-20T08:57:49.762Z,100744.03
2022-12-20T09:00:56.250Z,100738.16
2022-12-20T09:04:02.101Z,100730.59
2022-12-20T09:07:09.534Z,100733.13
2022-12-20T09:10:31.432Z,100726.38
2022-12-20T09:13:44.118Z,100717.97
2022-12-20T09:16:51.043Z,100717.13
2022-12-20T09:19:56.725Z,100728.91
2022-12-20T09:23:03.946Z,100713.78
2022-12-20T09:26:11.853Z,100703.69
2022-12-20T09:29:23.110Z,100697.78
2022-12-20T09:32:33.213Z,100691.91
2022-12-20T09:35:42.765Z,100702.00
2022-12-20T09:38:50.627Z,100691.91
2022-12-20T09:41:56.636Z,100700.28
2022-12-20T09:45:09.639Z,100694.41
2022-12-20T09:48:19.614Z,100701.13
2022-12-20T09:51:40.992Z,100714.59
2022-12-20T09:54:58.266Z,100710.41
2022-12-20T09:58:24.906Z,100736.50
2022-12-20T10:01:38.296Z,100718.84
2022-12-20T10:04:45.900Z,100716.31
2022-12-20T10:07:57.119Z,100718.84
2022-12-20T10:11:09.894Z,100709.56
2022-12-20T10:14:31.744Z,100701.13
2022-12-20T10:17:46.054Z,100694.41
2022-12-20T10:21:01.006Z,100693.56
2022-12-20T10:24:11.021Z,100686.84
2022-12-20T10:27:20.861Z,100676.75
2022-12-20T10:30:28.563Z,100677.53
2022-12-20T10:33:35.774Z,100660.72
2022-12-20T10:36:45.323Z,100679.22
2022-12-20T10:39:54.609Z,100685.97
2022-12-20T10:43:06.269Z,100670.81
2022-12-20T10:46:13.662Z,100674.19
2022-12-20T10:49:41.057Z,100653.13
2022-12-20T10:52:47.746Z,100662.34
2022-12-20T10:55:56.772Z,100666.56
2022-12-20T10:59:11.780Z,100664.88
2022-12-20T11:02:39.620Z,100658.13
2022-12-20T11:05:56.969Z,100656.44
2022-12-20T11:09:26.213Z,100664.88
2022-12-20T11:12:34.070Z,100651.41
2022-12-20T11:15:50.650Z,100649.72
2022-12-20T11:19:13.850Z,100651.41
2022-12-20T11:22:28.822Z,100646.34
2022-12-20T11:25:41.727Z,100647.19
2022-12-20T11:28:57.943Z,100644.66
2022-12-20T11:32:13.063Z,100649.69
2022-12-20T11:35:24.846Z,100655.56
2022-12-20T11:38:42.322Z,100649.72
2022-12-20T11:41:57.042Z,100655.63
2022-12-20T11:45:09.861Z,100653.09
2022-12-20T11:49:03.953Z,100648.03
2022-12-20T11:52:23.069Z,100650.50
2022-12-20T11:55:33.092Z,100647.16
2022-12-20T11:58:47.747Z,100637.88
2022-12-20T12:01:59.170Z,100638.75
2022-12-20T12:05:07.978Z,100640.44
2022-12-20T12:08:19.198Z,100649.66
2022-12-20T12:14:58.340Z,100644.59
2022-12-20T12:18:07.012Z,100637.78
2022-12-20T12:21:21.033Z,100643.69
2022-12-20T12:24:35.097Z,100633.59
2022-12-20T12:27:43.694Z,100621.78
2022-12-20T12:31:11.273Z,100612.53
2022-12-20T12:34:41.364Z,100613.34
2022-12-20T12:38:04.957Z,100596.50
2022-12-20T12:41:36.422Z,100599.03
2022-12-20T12:44:50.290Z,100596.50
2022-12-20T12:47:58.191Z,100589.69
2022-12-20T12:51:05.105Z,100590.59
2022-12-20T12:54:22.905Z,100594.75
2022-12-20T12:57:32.796Z,100598.94
2022-12-20T13:00:51.120Z,100602.41
2022-12-20T13:04:23.577Z,100594.81
2022-12-20T13:07:32.125Z,100587.13
2022-12-20T13:14:52.598Z,100595.31
2022-12-20T13:17:59.145Z,100593.66
2022-12-20T13:21:39.209Z,100596.13
2022-12-20T13:24:56.775Z,100593.66
2022-12-20T13:28:31.774Z,100592.06
2022-12-20T13:31:38.673Z,100580.28
2022-12-20T13:34:58.412Z,100570.78
2022-12-20T13:38:06.368Z,100577.56
2022-12-20T13:41:19.753Z,100589.25
2022-12-20T13:44:43.614Z,100593.56
2022-12-20T13:47:52.754Z,100590.28
2022-12-20T13:50:58.517Z,100586.09
2022-12-20T13:54:05.722Z,100589.56
2022-12-20T13:57:15.611Z,100601.41
2022-12-20T14:00:25.690Z,100598.84
2022-12-20T14:03:33.054Z,100601.34
2022-12-20T14:06:38.576Z,100603.06
2022-12-20T14:09:51.149Z,100598.88
2022-12-20T14:12:56.402Z,100588.72
2022-12-20T14:16:10.087Z,100592.13
2022-12-20T14:19:17.901Z,100592.94
2022-12-20T14:22:23.418Z,100592.84
2022-12-20T14:25:36.577Z,100580.28
2022-12-20T14:28:44.448Z,100592.09
2022-12-20T14:31:50.087Z,100607.19
2022-12-20T14:35:04.059Z,100608.13
2022-12-20T14:38:23.864Z,100602.13
2022-12-20T14:41:37.922Z,100604.63
2022-12-20T14:44:43.060Z,100602.97
2022-12-20T14:47:53.005Z,100598.69
2022-12-20T14:51:00.446Z,100605.38
2022-12-20T14:54:05.921Z,100606.28
2022-12-20T14:57:17.591Z,100596.09
2022-12-20T15:00:28.209Z,100599.47
2022-12-20T15:03:34.467Z,100595.34
2022-12-20T15:06:46.000Z,100581.72
2022-12-20T15:09:51.445Z,100591.97
2022-12-20T15:13:00.459Z,100592.09
2022-12-20T15:16:08.026Z,100597.06
2022-12-20T15:19:14.351Z,100592.88
2022-12-20T15:22:22.492Z,100587.78
2022-12-20T15:25:28.272Z,100577.56
2022-12-20T15:28:33.829Z,100575.13
2022-12-20T15:31:40.693Z,100574.38
2022-12-20T15:34:46.177Z,100580.19
2022-12-20T15:37:53.140Z,100573.56
2022-12-20T15:41:01.932Z,100569.44
2022-12-20T15:44:08.903Z,100577.03
2022-12-20T15:47:15.283Z,100563.47
2022-12-20T15:50:22.213Z,100576.78
2022-12-20T15:53:32.275Z,100583.59
2022-12-20T15:56:38.011Z,100582.75
2022-12-20T16:00:03.506Z,100574.31
2022-12-20T16:03:18.584Z,100565.16
2022-12-20T16:06:24.495Z,100557.56
2022-12-20T16:09:31.611Z,100554.03
2022-12-20T16:12:42.110Z,100564.16
2022-12-20T16:15:57.388Z,100570.03
2022-12-20T16:19:05.144Z,100559.91
2022-12-20T16:22:17.030Z,100542.84
2022-12-20T16:25:36.431Z,100557.38
2022-12-20T16:28:42.504Z,100549.84
2022-12-20T16:31:48.394Z,100536.47
2022-12-20T16:34:59.734Z,100527.94
2022-12-20T16:38:07.409Z,100543.97
2022-12-20T16:41:17.137Z,100535.63
2022-12-20T16:44:24.068Z,100539.72
2022-12-20T16:47:29.334Z,100543.91
2022-12-20T16:50:36.210Z,100539.75
2022-12-20T16:54:09.995Z,100529.63
2022-12-20T16:57:08.953Z,100544.09
2022-12-20T17:00:20.195Z,100544.03
2022-12-20T17:03:25.475Z,100529.72
2022-12-20T17:06:31.004Z,100525.63
2022-12-20T17:13:03.158Z,100518.59
2022-12-20T17:16:10.651Z,100517.84
2022-12-20T17:19:17.474Z,100514.31
2022-12-20T17:22:23.065Z,100497.38
2022-12-20T17:25:30.344Z,100522.81
2022-12-20T17:28:37.449Z,100506.81
2022-12-20T17:31:44.636Z,100506.66
2022-12-20T17:34:49.756Z,100502.47
2022-12-20T17:37:57.734Z,100501.47
2022-12-20T17:41:17.218Z,100497.41
2022-12-20T17:44:30.848Z,100504.00
2022-12-20T17:47:36.413Z,100497.97
2022-12-20T17:50:42.438Z,100505.53
2022-12-20T17:53:48.753Z,100497.75
2022-12-20T17:56:54.784Z,100498.06
2022-12-20T18:00:01.993Z,100497.94
2022-12-20T18:03:53.053Z,100506.34
2022-12-20T18:06:39.137Z,100513.94
2022-12-20T18:09:48.981Z,100503.03
2022-12-20T18:12:55.215Z,100497.03
2022-12-20T18:16:06.001Z,100487.72
2022-12-20T18:19:17.852Z,100480.97
2022-12-20T18:22:24.386Z,100478.47
2022-12-20T18:25:31.650Z,100485.97
2022-12-20T18:28:36.765Z,100468.38
2022-12-20T18:31:43.614Z,100473.38
2022-12-20T18:34:48.868Z,100468.38
2022-12-20T18:37:54.897Z,100463.16
2022-12-20T18:41:05.412Z,100469.19
2022-12-20T18:44:19.440Z,100456.53
2022-12-20T18:47:26.769Z,100457.44
2022-12-20T18:50:32.602Z,100450.72
2022-12-20T18:53:39.215Z,100460.91
2022-12-20T18:56:46.707Z,100453.91
2022-12-20T18:59:52.467Z,100449.09
2022-12-20T19:03:02.419Z,100450.66
2022-12-20T19:06:11.758Z,100452.47
2022-12-20T19:09:17.264Z,100437.19
2022-12-20T19:12:27.259Z,100437.97
2022-12-20T19:15:36.341Z,100436.47
2022-12-20T19:18:44.908Z,100444.88
2022-12-20T19:21:50.004Z,100444.91
2022-12-20T19:24:57.029Z,100440.66
2022-12-20T19:28:03.778Z,100432.97
2022-12-20T19:31:17.324Z,100433.09
2022-12-20T19:34:32.386Z,100424.53
2022-12-20T19:37:37.968Z,100432.81
2022-12-20T19:40:44.273Z,100432.09
2022-12-20T19:43:54.291Z,100429.56
2022-12-20T19:47:06.000Z,100433.00
2022-12-20T19:50:17.836Z,100421.16
2022-12-20T19:53:25.328Z,100421.91
2022-12-20T19:56:32.481Z,100419.38
2022-12-20T19:59:39.241Z,100421.06
2022-12-20T20:02:44.773Z,100415.19
2022-12-20T20:05:52.897Z,100416.91
2022-12-20T20:08:59.858Z,100417.56
2022-12-20T20:12:05.761Z,100414.41
2022-12-20T20:15:12.734Z,100416.22
2022-12-20T20:18:19.298Z,100409.34
2022-12-20T20:21:30.294Z,100416.09
2022-12-20T20:24:36.181Z,100410.09
2022-12-20T20:27:42.089Z,100416.84
2022-12-20T20:30:49.002Z,100402.59
2022-12-20T20:33:53.947Z,100406.81
2022-12-20T20:37:01.157Z,100402.53
2022-12-20T20:40:08.304Z,100400.69
2022-12-20T20:43:15.402Z,100398.13
2022-12-20T20:46:21.119Z,100386.28
2022-12-20T20:49:26.860Z,100393.09
2022-12-20T20:52:35.458Z,100385.22
2022-12-20T20:55:44.508Z,100392.25
2022-12-20T20:58:51.121Z,100386.34
2022-12-20T21:02:00.212Z,100383.94
2022-12-20T21:08:41.771Z,100374.53
2022-12-20T21:11:47.874Z,100371.13
2022-12-20T21:15:21.230Z,100356.72
2022-12-20T21:18:23.799Z,100362.66
2022-12-20T21:21:30.453Z,100363.38
2022-12-20T21:24:37.056Z,100361.16
2022-12-20T21:27:46.033Z,100349.16
2022-12-20T21:31:00.449Z,100350.81
2022-12-20T21:34:06.052Z,100342.44
2022-12-20T21:37:22.420Z,100343.13
2022-12-20T21:40:33.563Z,100349.16
2022-12-20T21:43:39.898Z,100340.69
2022-12-20T21:46:45.234Z,100345.63
2022-12-20T21:49:51.380Z,100340.66
2022-12-20T21:52:57.717Z,100334.69
2022-12-20T21:56:06.236Z,100327.16
2022-12-20T21:59:12.851Z,100322.09
2022-12-20T22:02:25.937Z,100318.63
2022-12-20T22:05:33.013Z,100320.41
2022-12-20T22:08:38.397Z,100326.44
2022-12-20T22:11:47.354Z,100325.47
2022-12-20T22:14:53.269Z,100313.44
2022-12-20T22:18:02.617Z,100323.78
2022-12-20T22:21:10.360Z,100313.66
2022-12-20T22:24:16.147Z,100313.50
2022-12-20T22:27:23.578Z,100310.09
2022-12-20T22:30:28.980Z,100300.06
2022-12-20T22:33:37.205Z,100296.69
2022-12-20T22:36:44.176Z,100295.91
2022-12-20T22:39:53.302Z,100295.94
2022-12-20T22:43:00.256Z,100295.25
2022-12-20T22:50:20.655Z,100280.63
2022-12-20T22:53:29.541Z,100285.78
2022-12-20T22:56:35.176Z,100281.84
2022-12-20T22:59:44.865Z,100275.81
2022-12-20T23:02:50.290Z,100282.66
2022-12-20T23:05:56.979Z,100281.88
2022-12-20T23:09:03.089Z,100272.44
2022-12-20T23:12:26.552Z,100274.22
2022-12-20T23:15:44.026Z,100272.53
2022-12-20T23:18:50.220Z,100265.06
2022-12-20T23:22:12.857Z,100257.41
2022-12-20T23:25:21.181Z,100265.72
2022-12-20T23:28:27.968Z,100262.47
2022-12-20T23:31:36.010Z,100259.31
2022-12-20T23:34:41.233Z,100269.25
2022-12-20T23:37:46.789Z,100257.75
2022-12-20T23:40:52.620Z,100253.06
2022-12-20T23:43:58.701Z,100252.28
2022-12-20T23:47:06.117Z,100252.19
2022-12-20T23:50:12.987Z,100249.81
2022-12-20T23:53:18.683Z,100237.19
2022-12-20T23:56:25.546Z,100249.69
2022-12-20T23:59:32.096Z,100245.34
